createdAt,value
2023-03-27T20:56:23.351Z,-0.15
2023-03-27T20:58:51.704Z,-0.19
2023-03-27T21:01:19.743Z,-0.18
2023-03-27T21:03:49.819Z,-0.06
2023-03-27T21:06:20.070Z,-0.07
2023-03-27T21:08:48.182Z,-0.01
2023-03-27T21:11:16.179Z,0.08
2023-03-27T21:13:43.713Z,0.12
2023-03-27T21:16:11.460Z,0.21
2023-03-27T21:18:38.960Z,0.24
2023-03-27T21:21:06.848Z,0.31
2023-03-27T21:23:35.419Z,0.41
2023-03-27T21:26:03.206Z,0.27
2023-03-27T21:28:31.380Z,0.20
2023-03-27T21:30:59.643Z,0.18
2023-03-27T21:33:27.513Z,0.14
2023-03-27T21:35:55.038Z,0.08
2023-03-27T21:38:22.879Z,0.03
2023-03-27T21:40:50.979Z,0.04
2023-03-27T21:43:18.570Z,0.01
2023-03-27T21:45:49.053Z,0.00
2023-03-27T21:48:16.973Z,0.03
2023-03-27T21:50:47.207Z,0.08
2023-03-27T21:53:16.954Z,0.08
2023-03-27T21:55:46.277Z,0.14
2023-03-27T21:58:14.095Z,0.09
2023-03-27T22:00:45.135Z,0.13
2023-03-27T22:03:12.865Z,0.16
2023-03-27T22:05:40.708Z,0.12
2023-03-27T22:08:08.629Z,0.05
2023-03-27T22:10:38.470Z,0.10
2023-03-27T22:13:06.663Z,0.13
2023-03-27T22:15:34.207Z,0.24
2023-03-27T22:18:22.120Z,0.21
2023-03-27T22:21:32.084Z,0.16
2023-03-27T22:24:20.073Z,0.15
2023-03-27T22:27:01.681Z,0.14
2023-03-27T22:29:42.070Z,0.11
2023-03-27T22:32:23.181Z,0.12
2023-03-27T22:35:04.089Z,0.07
2023-03-27T22:37:46.167Z,0.07
2023-03-27T22:40:30.080Z,-0.05
2023-03-27T22:43:11.194Z,-0.03
2023-03-27T22:46:12.110Z,-0.11
2023-03-27T22:48:54.261Z,-0.04
2023-03-27T22:51:36.091Z,0.04
2023-03-27T22:54:31.214Z,-0.05
2023-03-27T22:57:19.260Z,-0.11
2023-03-27T23:00:00.335Z,-0.09
2023-03-27T23:02:41.148Z,-0.03
2023-03-27T23:05:22.229Z,-0.07
2023-03-27T23:08:03.143Z,-0.03
2023-03-27T23:10:44.185Z,-0.07
2023-03-27T23:13:25.068Z,-0.10
2023-03-27T23:16:06.239Z,-0.07
2023-03-27T23:18:47.120Z,-0.03
2023-03-27T23:21:28.210Z,-0.09
2023-03-27T23:24:09.097Z,-0.07
2023-03-27T23:26:50.389Z,-0.14
2023-03-27T23:29:31.118Z,-0.07
2023-03-27T23:32:12.223Z,-0.06
2023-03-27T23:34:53.118Z,-0.15
2023-03-27T23:37:35.406Z,-0.16
2023-03-27T23:40:19.043Z,-0.18
2023-03-27T23:43:00.202Z,-0.20
2023-03-27T23:45:41.131Z,-0.22
2023-03-27T23:48:22.226Z,-0.21
2023-03-27T23:50:52.033Z,-0.22
2023-03-27T23:53:22.048Z,-0.30
2023-03-27T23:55:49.821Z,-0.38
2023-03-27T23:58:18.774Z,-0.38
